sensor_id;sensor_type;location;lat;lon;timestamp;pressure;altitude;pressure_sealevel;temperature;humidity
57616;BME280;43816;52.054;-9.494;2023-02-22T00:00:08;100991.88;;;20.20;41.11
57616;BME280;43816;52.054;-9.494;2023-02-22T00:00:21;100979.91;;;20.13;40.91
57616;BME280;43816;52.054;-9.494;2023-02-22T00:00:31;100973.97;;;20.09;41.13
57616;BME280;43816;52.054;-9.494;2023-02-22T00:00:42;100975.50;;;20.12;40.94
57616;BME280;43816;52.054;-9.494;2023-02-22T00:00:53;100993.56;;;20.21;41.14
57616;BME280;43816;52.054;-9.494;2023-02-22T00:01:03;100990.16;;;20.19;41.14
57616;BME280;43816;52.054;-9.494;2023-02-22T00:01:15;100993.72;;;20.20;41.09
57616;BME280;43816;52.054;-9.494;2023-02-22T00:01:25;100965.44;;;20.04;41.10
57616;BME280;43816;52.054;-9.494;2023-02-22T00:01:36;100985.03;;;20.16;41.26
57616;BME280;43816;52.054;-9.494;2023-02-22T00:01:46;100978.91;;;20.14;41.16
57616;BME280;43816;52.054;-9.494;2023-02-22T00:01:56;100961.16;;;20.02;41.06
57616;BME280;43816;52.054;-9.494;2023-02-22T00:02:06;100935.63;;;19.86;40.94
57616;BME280;43816;52.054;-9.494;2023-02-22T00:02:17;100988.25;;;20.20;41.06
57616;BME280;43816;52.054;-9.494;2023-02-22T00:02:28;100965.09;;;20.07;41.09
57616;BME280;43816;52.054;-9.494;2023-02-22T00:02:38;100933.75;;;19.87;41.19
57616;BME280;43816;52.054;-9.494;2023-02-22T00:02:49;100976.88;;;20.08;41.05
57616;BME280;43816;52.054;-9.494;2023-02-22T00:03:00;100942.28;;;19.84;41.00
57616;BME280;43816;52.054;-9.494;2023-02-22T00:03:24;100971.56;;;20.14;40.83
57616;BME280;43816;52.054;-9.494;2023-02-22T00:03:34;100978.22;;;20.12;41.11
57616;BME280;43816;52.054;-9.494;2023-02-22T00:03:49;100968.00;;;20.06;40.96
57616;BME280;43816;52.054;-9.494;2023-02-22T00:04:04;100993.91;;;20.18;40.98
57616;BME280;43816;52.054;-9.494;2023-02-22T00:04:16;100947.41;;;19.87;41.12
57616;BME280;43816;52.054;-9.494;2023-02-22T00:04:26;100990.31;;;20.18;40.93
57616;BME280;43816;52.054;-9.494;2023-02-22T00:04:36;100981.31;;;20.09;40.91
57616;BME280;43816;52.054;-9.494;2023-02-22T00:04:47;100975.19;;;20.07;41.04
57616;BME280;43816;52.054;-9.494;2023-02-22T00:04:57;100978.75;;;20.07;40.99
57616;BME280;43816;52.054;-9.494;2023-02-22T00:05:07;100984.53;;;20.12;41.18
57616;BME280;43816;52.054;-9.494;2023-02-22T00:05:18;100967.34;;;20.04;41.11
57616;BME280;43816;52.054;-9.494;2023-02-22T00:05:29;100988.13;;;20.13;41.12
57616;BME280;43816;52.054;-9.494;2023-02-22T00:05:39;100992.22;;;20.17;40.99
57616;BME280;43816;52.054;-9.494;2023-02-22T00:05:58;100983.88;;;20.10;41.02
57616;BME280;43816;52.054;-9.494;2023-02-22T00:06:15;100994.94;;;20.17;40.99
57616;BME280;43816;52.054;-9.494;2023-02-22T00:06:25;100987.44;;;20.11;40.88
57616;BME280;43816;52.054;-9.494;2023-02-22T00:06:36;100963.41;;;19.98;40.98
57616;BME280;43816;52.054;-9.494;2023-02-22T00:06:46;100974.66;;;20.03;40.91
57616;BME280;43816;52.054;-9.494;2023-02-22T00:06:57;100989.16;;;20.12;41.20
57616;BME280;43816;52.054;-9.494;2023-02-22T00:07:07;100966.63;;;20.02;41.09
57616;BME280;43816;52.054;-9.494;2023-02-22T00:07:18;100984.72;;;20.11;41.10
57616;BME280;43816;52.054;-9.494;2023-02-22T00:07:29;100974.81;;;20.02;41.12
57616;BME280;43816;52.054;-9.494;2023-02-22T00:07:39;100912.09;;;19.69;41.12
57616;BME280;43816;52.054;-9.494;2023-02-22T00:07:50;100984.38;;;20.06;41.08
57616;BME280;43816;52.054;-9.494;2023-02-22T00:08:00;100975.53;;;20.04;41.02
57616;BME280;43816;52.054;-9.494;2023-02-22T00:08:10;100989.34;;;20.10;40.74
57616;BME280;43816;52.054;-9.494;2023-02-22T00:08:24;100991.50;;;20.15;40.93
57616;BME280;43816;52.054;-9.494;2023-02-22T00:08:36;100994.25;;;20.15;40.90
57616;BME280;43816;52.054;-9.494;2023-02-22T00:08:47;100910.38;;;19.68;40.73
57616;BME280;43816;52.054;-9.494;2023-02-22T00:08:58;100987.09;;;20.14;40.78
57616;BME280;43816;52.054;-9.494;2023-02-22T00:09:08;100977.22;;;20.05;40.80
57616;BME280;43816;52.054;-9.494;2023-02-22T00:09:20;100991.72;;;20.13;40.60
57616;BME280;43816;52.054;-9.494;2023-02-22T00:09:30;100975.03;;;20.00;40.88
57616;BME280;43816;52.054;-9.494;2023-02-22T00:09:40;100952.66;;;19.88;40.99
57616;BME280;43816;52.054;-9.494;2023-02-22T00:09:51;100961.88;;;19.95;40.98
57616;BME280;43816;52.054;-9.494;2023-02-22T00:10:01;100934.63;;;19.79;41.01
57616;BME280;43816;52.054;-9.494;2023-02-22T00:10:13;100944.84;;;19.85;41.19
57616;BME280;43816;52.054;-9.494;2023-02-22T00:10:24;100955.06;;;19.91;40.99
57616;BME280;43816;52.054;-9.494;2023-02-22T00:10:34;100971.06;;;20.03;40.92
57616;BME280;43816;52.054;-9.494;2023-02-22T00:10:45;100975.53;;;20.04;40.77
57616;BME280;43816;52.054;-9.494;2023-02-22T00:11:04;100985.06;;;20.08;41.00
57616;BME280;43816;52.054;-9.494;2023-02-22T00:11:15;100983.69;;;20.12;40.98
57616;BME280;43816;52.054;-9.494;2023-02-22T00:11:25;100950.97;;;19.87;41.02
57616;BME280;43816;52.054;-9.494;2023-02-22T00:11:35;100982.66;;;20.05;40.82
57616;BME280;43816;52.054;-9.494;2023-02-22T00:11:47;100970.41;;;20.01;41.10
57616;BME280;43816;52.054;-9.494;2023-02-22T00:11:57;100992.91;;;20.11;41.01
57616;BME280;43816;52.054;-9.494;2023-02-22T00:12:07;100974.81;;;20.02;41.03
57616;BME280;43816;52.054;-9.494;2023-02-22T00:12:18;100969.91;;;19.97;41.03
57616;BME280;43816;52.054;-9.494;2023-02-22T00:12:28;100972.09;;;20.02;40.90
57616;BME280;43816;52.054;-9.494;2023-02-22T00:12:42;100946.38;;;19.88;40.80
57616;BME280;43816;52.054;-9.494;2023-02-22T00:12:53;100973.81;;;20.03;40.91
57616;BME280;43816;52.054;-9.494;2023-02-22T00:13:06;100977.03;;;20.06;40.98
57616;BME280;43816;52.054;-9.494;2023-02-22T00:13:18;100991.19;;;20.10;40.85
57616;BME280;43816;52.054;-9.494;2023-02-22T00:13:29;100991.19;;;20.10;40.92
57616;BME280;43816;52.054;-9.494;2023-02-22T00:13:40;100987.44;;;20.11;40.90
57616;BME280;43816;52.054;-9.494;2023-02-22T00:13:50;100978.94;;;20.06;40.81
57616;BME280;43816;52.054;-9.494;2023-02-22T00:14:00;100977.22;;;20.05;40.88
57616;BME280;43816;52.054;-9.494;2023-02-22T00:14:11;100977.38;;;20.03;40.98
57616;BME280;43816;52.054;-9.494;2023-02-22T00:14:21;100977.75;;;20.00;40.88
57616;BME280;43816;52.054;-9.494;2023-02-22T00:14:31;100979.28;;;20.03;40.99
57616;BME280;43816;52.054;-9.494;2023-02-22T00:14:41;100974.50;;;19.96;40.85
57616;BME280;43816;52.054;-9.494;2023-02-22T00:14:52;100972.47;;;19.99;40.71
57616;BME280;43816;52.054;-9.494;2023-02-22T00:15:02;100965.31;;;19.89;40.55
57616;BME280;43816;52.054;-9.494;2023-02-22T00:15:14;100996.66;;;20.10;40.80
57616;BME280;43816;52.054;-9.494;2023-02-22T00:15:24;100987.47;;;20.03;40.29
57616;BME280;43816;52.054;-9.494;2023-02-22T00:15:35;100974.50;;;19.96;40.89
57616;BME280;43816;52.054;-9.494;2023-02-22T00:15:45;100981.50;;;19.99;40.71
57616;BME280;43816;52.054;-9.494;2023-02-22T00:15:57;100989.50;;;20.09;40.90
57616;BME280;43816;52.054;-9.494;2023-02-22T00:16:07;100974.50;;;19.96;40.92
57616;BME280;43816;52.054;-9.494;2023-02-22T00:16:20;100962.91;;;19.86;40.70
57616;BME280;43816;52.054;-9.494;2023-02-22T00:16:31;100976.56;;;19.94;40.84
57616;BME280;43816;52.054;-9.494;2023-02-22T00:16:41;100992.94;;;20.03;40.98
57616;BME280;43816;52.054;-9.494;2023-02-22T00:16:52;100979.78;;;19.98;40.90
57616;BME280;43816;52.054;-9.494;2023-02-22T00:17:02;100990.19;;;20.03;40.82
57616;BME280;43816;52.054;-9.494;2023-02-22T00:17:12;100987.81;;;20.00;40.69
57616;BME280;43816;52.054;-9.494;2023-02-22T00:17:23;100951.81;;;19.71;40.63
57616;BME280;43816;52.054;-9.494;2023-02-22T00:17:34;100996.81;;;20.08;40.81
57616;BME280;43816;52.054;-9.494;2023-02-22T00:17:44;100934.78;;;19.69;41.04
57616;BME280;43816;52.054;-9.494;2023-02-22T00:17:55;100994.16;;;20.00;40.75
57616;BME280;43816;52.054;-9.494;2023-02-22T00:18:06;101001.44;;;20.08;40.83
57616;BME280;43816;52.054;-9.494;2023-02-22T00:18:17;100992.94;;;20.03;40.74
57616;BME280;43816;52.054;-9.494;2023-02-22T00:18:28;100982.69;;;19.96;40.53
57616;BME280;43816;52.054;-9.494;2023-02-22T00:18:38;100984.41;;;19.98;40.68
57616;BME280;43816;52.054;-9.494;2023-02-22T00:18:49;100975.03;;;19.92;40.71
57616;BME280;43816;52.054;-9.494;2023-02-22T00:19:00;100989.19;;;19.95;40.82
57616;BME280;43816;52.054;-9.494;2023-02-22T00:19:10;100982.69;;;19.96;40.94
57616;BME280;43816;52.054;-9.494;2023-02-22T00:19:20;100956.47;;;19.79;40.61
57616;BME280;43816;52.054;-9.494;2023-02-22T00:19:30;100984.56;;;19.96;40.63
57616;BME280;43816;52.054;-9.494;2023-02-22T00:19:41;100940.91;;;19.71;40.73
57616;BME280;43816;52.054;-9.494;2023-02-22T00:19:51;100993.94;;;20.02;40.58
57616;BME280;43816;52.054;-9.494;2023-02-22T00:20:02;100984.41;;;19.98;40.78
57616;BME280;43816;52.054;-9.494;2023-02-22T00:20:14;101001.78;;;20.05;40.78
57616;BME280;43816;52.054;-9.494;2023-02-22T00:20:25;100968.56;;;19.85;40.70
57616;BME280;43816;52.054;-9.494;2023-02-22T00:20:35;100977.25;;;19.88;40.76
57616;BME280;43816;52.054;-9.494;2023-02-22T00:20:46;100998.56;;;20.01;40.69
57616;BME280;43816;52.054;-9.494;2023-02-22T00:20:58;101000.94;;;20.04;40.82
57616;BME280;43816;52.054;-9.494;2023-02-22T00:21:10;100988.16;;;19.96;40.89
57616;BME280;43816;52.054;-9.494;2023-02-22T00:21:21;100993.28;;;20.00;40.76
57616;BME280;43816;52.054;-9.494;2023-02-22T00:21:31;100991.94;;;19.95;40.91
57616;BME280;43816;52.054;-9.494;2023-02-22T00:21:41;100947.91;;;19.74;40.77
57616;BME280;43816;52.054;-9.494;2023-02-22T00:21:52;100997.38;;;20.04;40.73
57616;BME280;43816;52.054;-9.494;2023-02-22T00:22:02;100990.03;;;19.96;40.66
57616;BME280;43816;52.054;-9.494;2023-02-22T00:22:12;100914.19;;;19.50;40.74
57616;BME280;43816;52.054;-9.494;2023-02-22T00:22:23;100928.16;;;19.55;40.65
57616;BME280;43816;52.054;-9.494;2023-02-22T00:22:33;100982.84;;;19.95;40.55
57616;BME280;43816;52.054;-9.494;2023-02-22T00:22:44;100996.50;;;20.03;40.66
57616;BME280;43816;52.054;-9.494;2023-02-22T00:22:55;100992.09;;;19.94;40.63
57616;BME280;43816;52.054;-9.494;2023-02-22T00:23:08;101005.25;;;19.99;40.58
57616;BME280;43816;52.054;-9.494;2023-02-22T00:23:20;100996.50;;;20.03;40.61
57616;BME280;43816;52.054;-9.494;2023-02-22T00:23:31;100975.22;;;19.90;40.65
57616;BME280;43816;52.054;-9.494;2023-02-22T00:23:45;100999.41;;;20.02;40.86
57616;BME280;43816;52.054;-9.494;2023-02-22T00:23:55;100995.00;;;19.92;40.84
57616;BME280;43816;52.054;-9.494;2023-02-22T00:24:06;100988.88;;;19.90;40.62
57616;BME280;43816;52.054;-9.494;2023-02-22T00:24:16;100978.13;;;19.89;40.87
57616;BME280;43816;52.054;-9.494;2023-02-22T00:24:26;100998.06;;;19.98;40.91
57616;BME280;43816;52.054;-9.494;2023-02-22T00:24:36;100986.13;;;19.90;40.77
57616;BME280;43816;52.054;-9.494;2023-02-22T00:24:47;100938.88;;;19.65;40.78
57616;BME280;43816;52.054;-9.494;2023-02-22T00:24:57;100949.97;;;19.72;40.70
57616;BME280;43816;52.054;-9.494;2023-02-22T00:25:08;100989.19;;;19.95;41.04
57616;BME280;43816;52.054;-9.494;2023-02-22T00:25:21;101003.00;;;20.02;40.79
57616;BME280;43816;52.054;-9.494;2023-02-22T00:25:32;101004.88;;;20.02;40.78
57616;BME280;43816;52.054;-9.494;2023-02-22T00:25:44;100991.75;;;19.97;40.69
57616;BME280;43816;52.054;-9.494;2023-02-22T00:25:55;100997.03;;;19.99;40.70
57616;BME280;43816;52.054;-9.494;2023-02-22T00:26:06;100929.84;;;19.56;40.80
57616;BME280;43816;52.054;-9.494;2023-02-22T00:26:19;100987.81;;;19.91;40.58
57616;BME280;43816;52.054;-9.494;2023-02-22T00:26:32;101007.59;;;20.02;40.77
57616;BME280;43816;52.054;-9.494;2023-02-22T00:26:42;100965.00;;;19.76;40.79
57616;BME280;43816;52.054;-9.494;2023-02-22T00:26:54;100957.13;;;19.73;40.76
57616;BME280;43816;52.054;-9.494;2023-02-22T00:27:04;100967.88;;;19.74;40.83
57616;BME280;43816;52.054;-9.494;2023-02-22T00:27:14;100982.69;;;19.88;41.07
57616;BME280;43816;52.054;-9.494;2023-02-22T00:27:25;100978.28;;;19.87;40.73
57616;BME280;43816;52.054;-9.494;2023-02-22T00:27:35;100985.25;;;19.90;40.71
57616;BME280;43816;52.054;-9.494;2023-02-22T00:27:46;100988.88;;;19.90;40.76
57616;BME280;43816;52.054;-9.494;2023-02-22T00:27:57;100981.03;;;19.87;40.76
57616;BME280;43816;52.054;-9.494;2023-02-22T00:28:07;100947.75;;;19.67;40.75
57616;BME280;43816;52.054;-9.494;2023-02-22T00:28:17;100938.53;;;19.60;40.73
57616;BME280;43816;52.054;-9.494;2023-02-22T00:28:28;100999.78;;;19.99;40.75
57616;BME280;43816;52.054;-9.494;2023-02-22T00:28:38;101008.63;;;20.01;40.72
57616;BME280;43816;52.054;-9.494;2023-02-22T00:28:51;101010.31;;;20.02;40.93
57616;BME280;43816;52.054;-9.494;2023-02-22T00:29:01;100945.19;;;19.66;40.70
57616;BME280;43816;52.054;-9.494;2023-02-22T00:29:12;100997.38;;;19.95;40.92
57616;BME280;43816;52.054;-9.494;2023-02-22T00:29:23;100988.00;;;19.90;40.63
57616;BME280;43816;52.054;-9.494;2023-02-22T00:29:34;100960.53;;;19.75;40.79
57616;BME280;43816;52.054;-9.494;2023-02-22T00:29:45;101005.91;;;20.01;40.75
57616;BME280;43816;52.054;-9.494;2023-02-22T00:29:55;100991.06;;;19.95;40.92
57616;BME280;43816;52.054;-9.494;2023-02-22T00:30:06;101003.19;;;20.01;40.69
57616;BME280;43816;52.054;-9.494;2023-02-22T00:30:20;100990.72;;;19.90;40.95
57616;BME280;43816;52.054;-9.494;2023-02-22T00:30:31;100983.41;;;19.90;40.87
57616;BME280;43816;52.054;-9.494;2023-02-22T00:30:42;100984.41;;;19.89;40.91
57616;BME280;43816;52.054;-9.494;2023-02-22T00:30:53;100990.72;;;19.90;40.74
57616;BME280;43816;52.054;-9.494;2023-02-22T00:31:05;101004.03;;;20.01;40.80
57616;BME280;43816;52.054;-9.494;2023-02-22T00:31:16;101000.63;;;19.99;40.77
57616;BME280;43816;52.054;-9.494;2023-02-22T00:31:26;100989.88;;;19.89;40.99
57616;BME280;43816;52.054;-9.494;2023-02-22T00:31:36;100993.28;;;19.91;40.98
57616;BME280;43816;52.054;-9.494;2023-02-22T00:31:47;100945.19;;;19.66;40.89
57616;BME280;43816;52.054;-9.494;2023-02-22T00:31:57;100980.69;;;19.82;40.89
57616;BME280;43816;52.054;-9.494;2023-02-22T00:32:07;100943.66;;;19.63;40.80
57616;BME280;43816;52.054;-9.494;2023-02-22T00:32:18;100968.75;;;19.75;40.70
57616;BME280;43816;52.054;-9.494;2023-02-22T00:32:28;100987.31;;;19.88;40.84
57616;BME280;43816;52.054;-9.494;2023-02-22T00:32:38;100980.69;;;19.82;40.82
57616;BME280;43816;52.054;-9.494;2023-02-22T00:32:49;100984.75;;;19.86;40.93
57616;BME280;43816;52.054;-9.494;2023-02-22T00:33:00;100971.81;;;19.80;40.76
57616;BME280;43816;52.054;-9.494;2023-02-22T00:33:12;100993.28;;;19.91;40.90
57616;BME280;43816;52.054;-9.494;2023-02-22T00:33:22;100994.16;;;19.92;40.73
57616;BME280;43816;52.054;-9.494;2023-02-22T00:33:32;101000.97;;;19.96;40.72
57616;BME280;43816;52.054;-9.494;2023-02-22T00:33:43;100959.19;;;19.79;40.66
57616;BME280;43816;52.054;-9.494;2023-02-22T00:33:53;100990.72;;;19.90;40.87
57616;BME280;43816;52.054;-9.494;2023-02-22T00:34:03;100978.47;;;19.86;41.06
57616;BME280;43816;52.054;-9.494;2023-02-22T00:34:14;100981.53;;;19.83;40.92
57616;BME280;43816;52.054;-9.494;2023-02-22T00:34:24;100986.13;;;19.90;40.98
57616;BME280;43816;52.054;-9.494;2023-02-22T00:34:34;100996.34;;;19.88;40.99
57616;BME280;43816;52.054;-9.494;2023-02-22T00:34:45;100997.91;;;19.91;40.91
57616;BME280;43816;52.054;-9.494;2023-02-22T00:34:55;100986.47;;;19.87;40.85
57616;BME280;43816;52.054;-9.494;2023-02-22T00:35:05;101004.38;;;19.98;40.87
57616;BME280;43816;52.054;-9.494;2023-02-22T00:35:19;100995.31;;;19.98;41.10
57616;BME280;43816;52.054;-9.494;2023-02-22T00:35:30;101001.81;;;19.96;40.77
57616;BME280;43816;52.054;-9.494;2023-02-22T00:35:41;101007.25;;;19.96;40.80
57616;BME280;43816;52.054;-9.494;2023-02-22T00:35:53;100998.41;;;19.94;40.99
57616;BME280;43816;52.054;-9.494;2023-02-22T00:36:03;101002.69;;;19.97;40.82
57616;BME280;43816;52.054;-9.494;2023-02-22T00:36:13;100996.72;;;19.93;41.00
57616;BME280;43816;52.054;-9.494;2023-02-22T00:36:24;100996.00;;;19.91;40.94
57616;BME280;43816;52.054;-9.494;2023-02-22T00:36:34;100996.00;;;19.91;41.22
57616;BME280;43816;52.054;-9.494;2023-02-22T00:36:48;100976.25;;;19.81;41.08
57616;BME280;43816;52.054;-9.494;2023-02-22T00:36:59;100978.63;;;19.84;41.13
57616;BME280;43816;52.054;-9.494;2023-02-22T00:37:10;100998.22;;;19.96;40.98
57616;BME280;43816;52.054;-9.494;2023-02-22T00:37:20;101006.25;;;19.98;41.05
57616;BME280;43816;52.054;-9.494;2023-02-22T00:37:30;100993.28;;;19.91;40.98
57616;BME280;43816;52.054;-9.494;2023-02-22T00:37:41;100994.50;;;19.89;40.85
57616;BME280;43816;52.054;-9.494;2023-02-22T00:37:56;100991.94;;;19.87;40.81
57616;BME280;43816;52.054;-9.494;2023-02-22T00:38:07;100984.94;;;19.85;41.07
57616;BME280;43816;52.054;-9.494;2023-02-22T00:38:18;100999.06;;;19.96;41.05
57616;BME280;43816;52.054;-9.494;2023-02-22T00:38:28;100986.13;;;19.90;41.03
57616;BME280;43816;52.054;-9.494;2023-02-22T00:38:40;100994.66;;;19.95;40.76
57616;BME280;43816;52.054;-9.494;2023-02-22T00:38:50;100979.81;;;19.90;40.84
57616;BME280;43816;52.054;-9.494;2023-02-22T00:39:00;100994.16;;;19.92;40.86
57616;BME280;43816;52.054;-9.494;2023-02-22T00:39:11;100986.47;;;19.87;41.00
57616;BME280;43816;52.054;-9.494;2023-02-22T00:39:21;100981.69;;;19.89;41.10
57616;BME280;43816;52.054;-9.494;2023-02-22T00:39:31;100992.78;;;19.88;40.82
57616;BME280;43816;52.054;-9.494;2023-02-22T00:39:46;100999.25;;;19.95;40.96
57616;BME280;43816;52.054;-9.494;2023-02-22T00:39:56;100993.63;;;19.88;40.82
57616;BME280;43816;52.054;-9.494;2023-02-22T00:40:13;100978.28;;;19.87;41.17
57616;BME280;43816;52.054;-9.494;2023-02-22T00:40:29;100987.66;;;19.85;40.90
57616;BME280;43816;52.054;-9.494;2023-02-22T00:40:39;100983.56;;;19.89;40.90
57616;BME280;43816;52.054;-9.494;2023-02-22T00:40:49;100989.88;;;19.89;41.16
57616;BME280;43816;52.054;-9.494;2023-02-22T00:41:00;100974.19;;;19.83;41.19
57616;BME280;43816;52.054;-9.494;2023-02-22T00:41:11;100986.66;;;19.86;40.94
57616;BME280;43816;52.054;-9.494;2023-02-22T00:41:21;100983.56;;;19.89;40.54
57616;BME280;43816;52.054;-9.494;2023-02-22T00:41:31;100980.34;;;19.85;40.97
57616;BME280;43816;52.054;-9.494;2023-02-22T00:41:42;100978.47;;;19.86;40.72
57616;BME280;43816;52.054;-9.494;2023-02-22T00:41:53;100976.56;;;19.86;41.00
57616;BME280;43816;52.054;-9.494;2023-02-22T00:42:03;100989.53;;;19.92;40.80
57616;BME280;43816;52.054;-9.494;2023-02-22T00:42:14;100990.72;;;19.90;40.87
57616;BME280;43816;52.054;-9.494;2023-02-22T00:42:25;100990.56;;;19.91;40.82
57616;BME280;43816;52.054;-9.494;2023-02-22T00:42:35;100972.00;;;19.78;40.67
57616;BME280;43816;52.054;-9.494;2023-02-22T00:42:46;100922.38;;;19.50;40.81
57616;BME280;43816;52.054;-9.494;2023-02-22T00:42:57;101001.31;;;19.93;40.82
57616;BME280;43816;52.054;-9.494;2023-02-22T00:43:07;101002.19;;;19.93;40.73
57616;BME280;43816;52.054;-9.494;2023-02-22T00:43:18;100979.31;;;19.86;41.03
57616;BME280;43816;52.054;-9.494;2023-02-22T00:43:28;100976.25;;;19.81;40.84
57616;BME280;43816;52.054;-9.494;2023-02-22T00:43:38;100986.81;;;19.84;40.88
57616;BME280;43816;52.054;-9.494;2023-02-22T00:43:49;100962.56;;;19.73;41.00
57616;BME280;43816;52.054;-9.494;2023-02-22T00:43:59;100937.84;;;19.58;40.82
57616;BME280;43816;52.054;-9.494;2023-02-22T00:44:10;100984.75;;;19.86;40.87
57616;BME280;43816;52.054;-9.494;2023-02-22T00:44:20;100997.72;;;19.92;40.90
57616;BME280;43816;52.054;-9.494;2023-02-22T00:44:31;100981.34;;;19.84;41.00
57616;BME280;43816;52.054;-9.494;2023-02-22T00:44:41;100975.56;;;19.79;41.08
57616;BME280;43816;52.054;-9.494;2023-02-22T00:44:52;100985.81;;;19.85;40.73
57616;BME280;43816;52.054;-9.494;2023-02-22T00:45:03;101002.19;;;19.93;40.84
57616;BME280;43816;52.054;-9.494;2023-02-22T00:45:20;100999.63;;;19.92;40.84
57616;BME280;43816;52.054;-9.494;2023-02-22T00:45:32;100986.81;;;19.84;40.77
57616;BME280;43816;52.054;-9.494;2023-02-22T00:45:43;100994.66;;;19.87;40.89
57616;BME280;43816;52.054;-9.494;2023-02-22T00:45:53;100975.22;;;19.74;40.93
57616;BME280;43816;52.054;-9.494;2023-02-22T00:46:04;100974.53;;;19.72;40.85
57616;BME280;43816;52.054;-9.494;2023-02-22T00:46:14;101003.88;;;19.86;40.92
57616;BME280;43816;52.054;-9.494;2023-02-22T00:46:24;101000.47;;;19.84;40.91
57616;BME280;43816;52.054;-9.494;2023-02-22T00:46:35;100984.78;;;19.78;40.79
57616;BME280;43816;52.054;-9.494;2023-02-22T00:46:45;100990.56;;;19.83;40.87
57616;BME280;43816;52.054;-9.494;2023-02-22T00:46:55;100984.25;;;19.74;40.91
57616;BME280;43816;52.054;-9.494;2023-02-22T00:47:05;101007.47;;;19.87;40.68
57616;BME280;43816;52.054;-9.494;2023-02-22T00:47:16;100997.75;;;19.84;40.61
57616;BME280;43816;52.054;-9.494;2023-02-22T00:47:26;100989.56;;;19.76;40.88
57616;BME280;43816;52.054;-9.494;2023-02-22T00:47:36;100989.38;;;19.77;40.62
57616;BME280;43816;52.054;-9.494;2023-02-22T00:47:47;100998.75;;;19.83;40.81
57616;BME280;43816;52.054;-9.494;2023-02-22T00:47:58;100987.13;;;19.73;40.71
57616;BME280;43816;52.054;-9.494;2023-02-22T00:48:09;100988.84;;;19.74;40.63
57616;BME280;43816;52.054;-9.494;2023-02-22T00:48:19;101006.09;;;19.83;40.73
57616;BME280;43816;52.054;-9.494;2023-02-22T00:48:30;101024.38;;;19.90;40.43
57616;BME280;43816;52.054;-9.494;2023-02-22T00:48:40;101001.84;;;19.80;40.50
57616;BME280;43816;52.054;-9.494;2023-02-22T00:48:50;101003.53;;;19.81;40.52
57616;BME280;43816;52.054;-9.494;2023-02-22T00:49:00;100995.66;;;19.70;40.54
57616;BME280;43816;52.054;-9.494;2023-02-22T00:49:11;101001.31;;;19.76;40.44
57616;BME280;43816;52.054;-9.494;2023-02-22T00:49:21;101010.88;;;19.81;40.51
57616;BME280;43816;52.054;-9.494;2023-02-22T00:49:31;100962.94;;;19.53;40.43
57616;BME280;43816;52.054;-9.494;2023-02-22T00:49:42;101006.09;;;19.83;40.54
57616;BME280;43816;52.054;-9.494;2023-02-22T00:49:52;101005.59;;;19.79;40.51
57616;BME280;43816;52.054;-9.494;2023-02-22T00:50:02;101020.25;;;19.86;40.59
57616;BME280;43816;52.054;-9.494;2023-02-22T00:50:14;101004.72;;;19.70;40.62
57616;BME280;43816;52.054;-9.494;2023-02-22T00:50:26;101016.88;;;19.76;40.56
57616;BME280;43816;52.054;-9.494;2023-02-22T00:50:37;101008.50;;;19.77;40.60
57616;BME280;43816;52.054;-9.494;2023-02-22T00:50:47;101010.69;;;19.74;40.49
57616;BME280;43816;52.054;-9.494;2023-02-22T00:50:58;101009.19;;;19.80;40.59
57616;BME280;43816;52.054;-9.494;2023-02-22T00:51:08;101018.25;;;19.80;40.44
57616;BME280;43816;52.054;-9.494;2023-02-22T00:51:19;101013.28;;;19.75;40.56
57616;BME280;43816;52.054;-9.494;2023-02-22T00:51:29;101019.09;;;19.81;40.55
57616;BME280;43816;52.054;-9.494;2023-02-22T00:51:39;101020.59;;;19.83;40.58
57616;BME280;43816;52.054;-9.494;2023-02-22T00:51:49;101005.56;;;19.71;40.51
57616;BME280;43816;52.054;-9.494;2023-02-22T00:52:00;101006.25;;;19.73;40.64
57616;BME280;43816;52.054;-9.494;2023-02-22T00:52:10;101005.22;;;19.74;40.48
57616;BME280;43816;52.054;-9.494;2023-02-22T00:52:20;101019.41;;;19.77;40.57
57616;BME280;43816;52.054;-9.494;2023-02-22T00:52:31;101016.88;;;19.76;40.60
57616;BME280;43816;52.054;-9.494;2023-02-22T00:52:41;101029.31;;;19.87;40.44
57616;BME280;43816;52.054;-9.494;2023-02-22T00:52:53;100998.72;;;19.67;40.66
57616;BME280;43816;52.054;-9.494;2023-02-22T00:53:04;101021.31;;;19.77;40.50
57616;BME280;43816;52.054;-9.494;2023-02-22T00:53:15;100996.00;;;19.67;40.36
57616;BME280;43816;52.054;-9.494;2023-02-22T00:53:25;100994.66;;;19.71;40.57
57616;BME280;43816;52.054;-9.494;2023-02-22T00:53:36;101018.41;;;19.78;40.38
57616;BME280;43816;52.054;-9.494;2023-02-22T00:53:46;101030.34;;;19.86;40.49
57616;BME280;43816;52.054;-9.494;2023-02-22T00:53:56;101026.06;;;19.83;40.53
57616;BME280;43816;52.054;-9.494;2023-02-22T00:54:07;101012.41;;;19.75;40.44
57616;BME280;43816;52.054;-9.494;2023-02-22T00:54:17;101007.47;;;19.70;40.59
57616;BME280;43816;52.054;-9.494;2023-02-22T00:54:27;101016.88;;;19.76;40.45
57616;BME280;43816;52.054;-9.494;2023-02-22T00:54:38;101029.50;;;19.85;40.65
57616;BME280;43816;52.054;-9.494;2023-02-22T00:54:48;101003.69;;;19.71;40.71
57616;BME280;43816;52.054;-9.494;2023-02-22T00:54:58;101016.53;;;19.79;40.67
57616;BME280;43816;52.054;-9.494;2023-02-22T00:55:13;101001.47;;;19.67;40.74
57616;BME280;43816;52.054;-9.494;2023-02-22T00:55:27;101010.03;;;19.72;40.71
57616;BME280;43816;52.054;-9.494;2023-02-22T00:55:37;100984.94;;;19.60;40.66
57616;BME280;43816;52.054;-9.494;2023-02-22T00:55:48;101006.59;;;19.70;40.42
57616;BME280;43816;52.054;-9.494;2023-02-22T00:55:58;101016.88;;;19.76;40.68
57616;BME280;43816;52.054;-9.494;2023-02-22T00:56:09;101013.78;;;19.79;40.64
57616;BME280;43816;52.054;-9.494;2023-02-22T00:56:19;100941.47;;;19.34;40.69
57616;BME280;43816;52.054;-9.494;2023-02-22T00:56:32;100976.06;;;19.50;40.64
57616;BME280;43816;52.054;-9.494;2023-02-22T00:56:42;100979.31;;;19.53;40.54